createdAt,value
2016-08-01T12:51:02.161Z,994.03
2016-08-01T12:52:02.167Z,993.96
2016-08-01T12:53:02.173Z,993.94
2016-08-01T12:54:02.177Z,993.95
2016-08-01T12:55:02.182Z,993.94
2016-08-01T12:56:02.188Z,993.99
2016-08-01T12:57:02.196Z,993.91
2016-08-01T12:58:02.198Z,994.02
2016-08-01T12:59:02.206Z,993.88
2016-08-01T13:00:02.211Z,993.82
2016-08-01T13:01:02.218Z,993.82
2016-08-01T13:02:02.220Z,993.85
2016-08-01T13:03:02.229Z,993.8
2016-08-01T13:04:02.231Z,993.78
2016-08-01T13:05:02.235Z,993.76
2016-08-01T13:06:02.241Z,993.78
2016-08-01T13:07:02.248Z,993.87
2016-08-01T13:08:02.252Z,993.86
2016-08-01T13:09:02.257Z,993.94
2016-08-01T13:10:02.262Z,993.93
2016-08-01T13:11:02.268Z,993.98
2016-08-01T13:12:02.273Z,993.99
2016-08-01T13:13:02.286Z,993.95
2016-08-01T13:14:02.291Z,993.97
2016-08-01T13:15:02.289Z,993.95
2016-08-01T13:16:02.293Z,993.99
2016-08-01T13:17:02.299Z,993.99
2016-08-01T13:18:02.304Z,994.05
2016-08-01T13:19:02.310Z,994.08
2016-08-01T13:20:02.319Z,994.07
2016-08-01T13:21:02.320Z,994
2016-08-01T13:22:02.325Z,994
2016-08-01T13:23:02.329Z,993.94
2016-08-01T13:24:02.335Z,993.89
2016-08-01T13:25:02.341Z,993.91
2016-08-01T13:26:02.350Z,993.89
2016-08-01T13:27:02.350Z,993.89
2016-08-01T13:28:02.357Z,993.92
2016-08-01T13:29:02.361Z,993.94
2016-08-01T13:30:02.368Z,993.99
2016-08-01T13:31:02.372Z,993.96
2016-08-01T13:32:02.378Z,993.95
2016-08-01T13:33:02.383Z,994
2016-08-01T13:34:02.388Z,993.98
2016-08-01T13:35:02.394Z,993.95
2016-08-01T13:36:02.399Z,993.9
2016-08-01T13:37:02.406Z,993.94
2016-08-01T13:38:02.421Z,993.9
2016-08-01T13:39:02.421Z,993.87
2016-08-01T13:40:02.422Z,993.82
2016-08-01T13:41:02.426Z,993.89
2016-08-01T13:42:02.431Z,993.88
2016-08-01T13:43:02.438Z,993.86
2016-08-01T13:44:02.445Z,993.88
2016-08-01T13:45:02.448Z,993.89
2016-08-01T13:46:02.454Z,993.87
2016-08-01T13:47:02.461Z,993.87
2016-08-01T13:48:02.464Z,993.89
2016-08-01T13:49:02.470Z,993.86
2016-08-01T13:50:02.476Z,993.83
2016-08-01T13:51:02.487Z,993.85
2016-08-01T13:52:02.486Z,993.87
2016-08-01T13:53:02.491Z,993.87
2016-08-01T13:54:02.496Z,993.85
2016-08-01T13:55:02.503Z,993.86
2016-08-01T13:56:02.510Z,993.86
2016-08-01T13:57:02.513Z,993.86
2016-08-01T13:58:02.519Z,993.85
2016-08-01T13:59:02.526Z,993.91
2016-08-01T14:00:02.529Z,993.94
2016-08-01T14:01:02.535Z,993.98
2016-08-01T14:02:02.542Z,993.86
2016-08-01T14:03:02.547Z,993.82
2016-08-01T14:04:02.551Z,993.77
2016-08-01T14:05:02.560Z,993.75
2016-08-01T14:06:02.562Z,993.72
2016-08-01T14:07:02.567Z,993.69
2016-08-01T14:08:02.572Z,993.67
2016-08-01T14:09:02.577Z,993.65
2016-08-01T14:10:02.584Z,993.68
2016-08-01T14:11:02.589Z,993.67
2016-08-01T14:12:02.596Z,993.67
2016-08-01T14:13:02.605Z,993.64
2016-08-01T14:14:02.611Z,993.68
2016-08-01T14:15:02.612Z,993.71
2016-08-01T14:16:02.617Z,993.72
2016-08-01T14:17:02.630Z,993.69
2016-08-01T14:18:02.627Z,993.69
2016-08-01T14:19:02.633Z,993.68
2016-08-01T14:20:02.639Z,993.64
2016-08-01T14:21:02.646Z,993.66
2016-08-01T14:22:02.648Z,993.65
2016-08-01T14:23:02.654Z,993.64
2016-08-01T14:24:02.663Z,993.63
2016-08-01T14:25:02.677Z,993.63
2016-08-01T14:26:02.676Z,993.63
2016-08-01T14:27:02.678Z,993.59
2016-08-01T14:28:02.682Z,993.7
2016-08-01T14:29:02.687Z,993.65
2016-08-01T14:30:02.694Z,993.69
2016-08-01T14:31:02.700Z,993.7
2016-08-01T14:32:02.705Z,993.63
2016-08-01T14:33:02.709Z,993.65
2016-08-01T14:34:02.715Z,993.63
2016-08-01T14:35:02.722Z,993.62
2016-08-01T14:36:02.726Z,993.58
2016-08-01T14:37:02.732Z,993.63
2016-08-01T14:38:02.744Z,993.6
2016-08-01T14:39:02.746Z,993.61
2016-08-01T14:40:02.757Z,993.66
2016-08-01T14:41:02.806Z,993.59
2016-08-01T14:42:02.809Z,993.62
2016-08-01T14:43:02.766Z,993.59
2016-08-01T14:44:02.771Z,993.62
2016-08-01T14:45:02.776Z,993.61
2016-08-01T14:46:02.789Z,993.64
2016-08-01T14:47:02.788Z,993.64
2016-08-01T14:48:02.799Z,993.62
2016-08-01T14:49:02.801Z,993.57
2016-08-01T14:50:02.804Z,993.61
2016-08-01T14:51:02.821Z,993.53
2016-08-01T14:52:02.823Z,993.53
2016-08-01T14:53:02.824Z,993.51
2016-08-01T14:54:02.827Z,993.48
2016-08-01T14:55:02.831Z,993.51
2016-08-01T14:56:02.854Z,993.47
2016-08-01T14:57:02.846Z,993.43
2016-08-01T14:58:02.850Z,993.4
2016-08-01T14:59:02.854Z,993.39
2016-08-01T15:00:02.863Z,993.38
2016-08-01T15:01:02.865Z,993.37
2016-08-01T15:02:02.871Z,993.4
2016-08-01T15:03:02.875Z,993.32
2016-08-01T15:04:02.882Z,993.32
2016-08-01T15:05:02.887Z,993.27
2016-08-01T15:06:02.891Z,993.25
2016-08-01T15:07:02.903Z,993.26
2016-08-01T15:08:02.903Z,993.14
2016-08-01T15:09:02.907Z,993.18
2016-08-01T15:10:02.927Z,993.2
2016-08-01T15:11:02.919Z,993.13
2016-08-01T15:12:02.924Z,993.22
2016-08-01T15:13:02.928Z,993.18
2016-08-01T15:14:02.933Z,993.23
2016-08-01T15:15:02.940Z,993.23
2016-08-01T15:16:02.944Z,993.29
2016-08-01T15:17:02.948Z,993.27
2016-08-01T15:18:02.953Z,993.24
2016-08-01T15:19:02.959Z,993.17
2016-08-01T15:20:02.963Z,993.2
2016-08-01T15:21:02.967Z,993.17
2016-08-01T15:22:02.977Z,993.08
2016-08-01T15:23:02.990Z,993.13
2016-08-01T15:24:02.992Z,993.13
2016-08-01T15:25:02.992Z,993.16
2016-08-01T15:26:03.001Z,993.17
2016-08-01T15:27:03.004Z,993.21
2016-08-01T15:28:03.004Z,993.22
2016-08-01T15:29:03.008Z,993.21
2016-08-01T15:30:03.014Z,993.19
2016-08-01T15:31:03.018Z,993.26
2016-08-01T15:32:03.022Z,993.17
2016-08-01T15:33:03.028Z,993.14
2016-08-01T15:34:03.034Z,993.15
2016-08-01T15:35:03.038Z,993.11
2016-08-01T15:36:03.054Z,993.05
2016-08-01T15:37:03.053Z,993.1
2016-08-01T15:38:03.058Z,993.03
2016-08-01T15:39:03.073Z,993.04
2016-08-01T15:40:03.077Z,993.04
2016-08-01T15:41:03.074Z,993.05
2016-08-01T15:42:03.076Z,993.06
2016-08-01T15:43:03.079Z,993.04
2016-08-01T15:44:03.084Z,993.08
2016-08-01T15:45:03.088Z,993.1
2016-08-01T15:46:03.093Z,993.07
2016-08-01T15:47:03.103Z,993.07
2016-08-01T15:48:03.103Z,993.08
2016-08-01T15:49:03.108Z,993.01
2016-08-01T15:50:03.113Z,993.03
2016-08-01T15:51:03.118Z,993.05
2016-08-01T15:52:03.125Z,993.04
2016-08-01T15:53:03.134Z,993.04
2016-08-01T15:54:03.140Z,993.04
2016-08-01T15:55:03.142Z,993.07
2016-08-01T15:56:03.142Z,993.02
2016-08-01T15:57:03.147Z,993
2016-08-01T15:58:03.152Z,993
2016-08-01T15:59:03.160Z,993
2016-08-01T16:00:03.173Z,992.99
2016-08-01T16:01:03.172Z,993.04
2016-08-01T16:02:03.182Z,993
2016-08-01T16:03:03.178Z,992.99
2016-08-01T16:04:03.183Z,992.97
2016-08-01T16:05:03.188Z,992.96
2016-08-01T16:06:03.205Z,992.97
2016-08-01T16:07:03.198Z,992.91
2016-08-01T16:08:03.202Z,992.94
2016-08-01T16:09:03.207Z,992.9
2016-08-01T16:10:03.213Z,992.88
2016-08-01T16:11:03.218Z,992.89
2016-08-01T16:12:03.223Z,992.86
2016-08-01T16:13:03.228Z,992.84
2016-08-01T16:14:03.232Z,992.88
2016-08-01T16:15:03.236Z,992.89
2016-08-01T16:16:03.247Z,992.89
2016-08-01T16:17:03.247Z,992.89
2016-08-01T16:18:03.252Z,992.9
2016-08-01T16:19:03.260Z,992.88
2016-08-01T16:20:03.262Z,992.89
2016-08-01T16:21:03.274Z,992.91
2016-08-01T16:22:03.270Z,992.87
2016-08-01T16:23:03.277Z,992.86
2016-08-01T16:24:03.282Z,992.86
2016-08-01T16:25:03.287Z,992.86
2016-08-01T16:26:03.292Z,992.83
2016-08-01T16:27:03.296Z,992.86
2016-08-01T16:28:03.312Z,992.81
2016-08-01T16:29:03.312Z,992.83
2016-08-01T16:30:03.315Z,992.83
2016-08-01T16:31:03.317Z,992.8
2016-08-01T16:32:03.321Z,992.81
2016-08-01T16:33:03.327Z,992.82
2016-08-01T16:34:03.332Z,992.8
2016-08-01T16:35:03.338Z,992.77
2016-08-01T16:36:03.343Z,992.77
2016-08-01T16:37:03.347Z,992.75
2016-08-01T16:38:03.352Z,992.68
2016-08-01T16:39:03.357Z,992.66
2016-08-01T16:40:03.363Z,992.69
2016-08-01T16:41:03.377Z,992.69
2016-08-01T16:42:03.378Z,992.67
2016-08-01T16:43:03.377Z,992.62
2016-08-01T16:44:03.383Z,992.65
2016-08-01T16:45:03.386Z,992.64
2016-08-01T16:46:03.399Z,992.64
2016-08-01T16:47:03.398Z,992.65
2016-08-01T16:48:03.401Z,992.62
2016-08-01T16:49:03.407Z,992.58
2016-08-01T16:50:03.411Z,992.63
2016-08-01T16:51:03.417Z,992.62
2016-08-01T16:52:03.421Z,992.6
2016-08-01T16:53:03.426Z,992.65
2016-08-01T16:54:03.431Z,992.64
2016-08-01T16:55:03.435Z,992.61
2016-08-01T16:56:03.441Z,992.65
2016-08-01T16:57:03.456Z,992.65
2016-08-01T16:58:03.452Z,992.66
2016-08-01T16:59:03.465Z,992.65
2016-08-01T17:00:03.460Z,992.67
2016-08-01T17:01:03.464Z,992.64
2016-08-01T17:02:03.469Z,992.73
2016-08-01T17:03:03.474Z,992.69
2016-08-01T17:04:03.478Z,992.69
2016-08-01T17:05:03.483Z,992.7
2016-08-01T17:06:03.487Z,992.69
2016-08-01T17:07:03.494Z,992.69
2016-08-01T17:08:03.496Z,992.65
2016-08-01T17:09:03.502Z,992.66
2016-08-01T17:10:03.514Z,992.62
2016-08-01T17:11:03.516Z,992.67
2016-08-01T17:12:03.528Z,992.69
2016-08-01T17:13:03.522Z,992.72
2016-08-01T17:14:03.525Z,992.71
2016-08-01T17:15:03.529Z,992.72
2016-08-01T17:16:03.534Z,992.74
2016-08-01T17:17:03.538Z,992.71
2016-08-01T17:18:03.543Z,992.66
2016-08-01T17:19:03.547Z,992.71
2016-08-01T17:20:03.559Z,992.66
2016-08-01T17:21:03.556Z,992.67
2016-08-01T17:22:03.561Z,992.68
2016-08-01T17:23:03.565Z,992.66
2016-08-01T17:24:03.571Z,992.61
2016-08-01T17:25:03.576Z,992.64
2016-08-01T17:26:03.580Z,992.65
2016-08-01T17:27:03.583Z,992.7
2016-08-01T17:28:03.588Z,992.6
2016-08-01T17:29:03.592Z,992.61
2016-08-01T17:30:03.598Z,992.61
2016-08-01T17:31:03.601Z,992.6
2016-08-01T17:32:03.606Z,992.63
2016-08-01T17:33:03.609Z,992.67
2016-08-01T17:34:03.624Z,992.61
2016-08-01T17:35:03.629Z,992.68
2016-08-01T17:36:03.626Z,992.6
2016-08-01T17:38:03.636Z,992.61
2016-08-01T17:39:03.636Z,992.64
2016-08-01T17:40:03.646Z,992.63
2016-08-01T17:41:03.644Z,992.66
2016-08-01T17:42:03.651Z,992.65
2016-08-01T17:43:03.654Z,992.64
2016-08-01T17:44:03.658Z,992.64
2016-08-01T17:45:03.662Z,992.69
2016-08-01T17:46:03.666Z,992.69
2016-08-01T17:47:03.670Z,992.69
2016-08-01T17:48:03.678Z,992.73
2016-08-01T17:49:03.683Z,992.7
2016-08-01T17:50:03.684Z,992.76
2016-08-01T17:51:03.708Z,992.72
2016-08-01T17:53:03.706Z,992.75
2016-08-01T17:54:03.707Z,992.74
2016-08-01T17:55:03.711Z,992.76
2016-08-01T17:56:03.718Z,992.77
2016-08-01T17:57:03.714Z,992.79
2016-08-01T17:58:03.733Z,992.78
2016-08-01T17:59:03.726Z,992.82
2016-08-01T18:00:03.734Z,992.82
2016-08-01T18:01:03.736Z,992.81
2016-08-01T18:02:03.737Z,992.79
2016-08-01T18:03:03.766Z,992.81
2016-08-01T18:04:03.751Z,992.83
2016-08-01T18:05:03.750Z,992.83
2016-08-01T18:06:03.775Z,992.83
2016-08-01T18:07:03.790Z,992.85
2016-08-01T18:08:03.779Z,992.81
2016-08-01T18:09:03.790Z,992.83
2016-08-01T18:10:03.791Z,992.83
2016-08-01T18:11:03.792Z,992.79
2016-08-01T18:12:03.794Z,992.84
2016-08-01T18:13:03.791Z,992.81
2016-08-01T18:14:03.788Z,992.78
2016-08-01T18:15:03.797Z,992.83
2016-08-01T18:16:03.814Z,992.84
2016-08-01T18:17:03.822Z,992.86
2016-08-01T18:18:03.824Z,992.87
2016-08-01T18:19:03.818Z,992.87
2016-08-01T18:20:03.813Z,992.88
2016-08-01T18:21:03.821Z,992.88
2016-08-01T18:22:03.826Z,992.9
2016-08-01T18:23:03.836Z,992.9
2016-08-01T18:24:03.834Z,992.9
2016-08-01T18:25:03.852Z,992.94
2016-08-01T18:26:03.846Z,992.92
2016-08-01T18:27:03.857Z,992.93
2016-08-01T18:28:03.855Z,992.94
2016-08-01T18:29:03.846Z,992.88
2016-08-01T18:30:03.863Z,992.93
2016-08-01T18:31:03.872Z,992.95
2016-08-01T18:32:03.861Z,992.95
2016-08-01T18:33:03.881Z,992.93
2016-08-01T18:34:03.890Z,992.96
2016-08-01T18:35:03.873Z,993
2016-08-01T18:36:03.876Z,992.96
2016-08-01T18:37:03.891Z,992.97
2016-08-01T18:38:03.896Z,992.98
2016-08-01T18:39:03.886Z,993
2016-08-01T18:40:03.900Z,992.98
2016-08-01T18:41:03.899Z,992.99
2016-08-01T18:42:03.900Z,993
2016-08-01T18:43:03.920Z,993.02
2016-08-01T18:44:03.922Z,992.99
2016-08-01T18:45:03.940Z,993.04
2016-08-01T18:46:03.944Z,993.07
2016-08-01T18:47:03.933Z,993.04
2016-08-01T18:48:03.939Z,993.02
2016-08-01T18:49:03.933Z,993.03
2016-08-01T18:50:03.934Z,993.01
2016-08-01T18:51:03.931Z,993.01
2016-08-01T18:52:03.942Z,993
2016-08-01T18:53:03.948Z,992.96
2016-08-01T18:54:03.938Z,992.98
2016-08-01T18:55:03.965Z,993.01
2016-08-01T18:56:03.964Z,992.96
2016-08-01T18:57:03.950Z,993.01
2016-08-01T18:58:03.973Z,993.02
2016-08-01T18:59:03.960Z,993.03
2016-08-01T19:00:03.978Z,993.05
2016-08-01T19:01:03.977Z,993.09
2016-08-01T19:02:03.975Z,993.11
2016-08-01T19:03:03.981Z,993.06
2016-08-01T19:04:03.999Z,993.07
2016-08-01T19:05:03.990Z,993.05
2016-08-01T19:06:03.998Z,993.06
2016-08-01T19:07:04.002Z,993.06
2016-08-01T19:08:04.001Z,993.04
2016-08-01T19:09:03.998Z,993.04
2016-08-01T19:10:04.002Z,993.08
2016-08-01T19:11:04.028Z,993.1
2016-08-01T19:12:04.012Z,993.1
2016-08-01T19:13:04.022Z,993.11
2016-08-01T19:14:04.025Z,993.1
2016-08-01T19:15:04.027Z,993.11
2016-08-01T19:16:04.030Z,993.11
2016-08-01T19:17:04.029Z,993.14
2016-08-01T19:18:04.027Z,993.11
2016-08-01T19:19:04.044Z,993.14
2016-08-01T19:20:04.037Z,993.13
2016-08-01T19:21:04.047Z,993.11
2016-08-01T19:22:04.041Z,993.12
2016-08-01T19:23:04.040Z,993.15
2016-08-01T19:24:04.042Z,993.16
2016-08-01T19:25:04.058Z,993.16
2016-08-01T19:26:04.053Z,993.16
2016-08-01T19:27:04.059Z,993.16
2016-08-01T19:28:04.055Z,993.18
2016-08-01T19:29:04.063Z,993.15
2016-08-01T19:30:04.087Z,993.19
2016-08-01T19:31:04.063Z,993.2
2016-08-01T19:32:04.092Z,993.22
2016-08-01T19:33:04.086Z,993.19
2016-08-01T19:34:04.086Z,993.22
2016-08-01T19:35:04.090Z,993.26
2016-08-01T19:36:04.087Z,993.25
2016-08-01T19:37:04.088Z,993.28
2016-08-01T19:38:04.096Z,993.28
2016-08-01T19:39:04.099Z,993.28
2016-08-01T19:40:04.108Z,993.3
2016-08-01T19:41:04.102Z,993.34
2016-08-01T19:42:04.103Z,993.33
2016-08-01T19:43:04.104Z,993.32
2016-08-01T19:44:04.104Z,993.36
2016-08-01T19:45:04.110Z,993.34
2016-08-01T19:46:04.114Z,993.37
2016-08-01T19:47:04.115Z,993.4
2016-08-01T19:48:04.117Z,993.37
2016-08-01T19:49:04.121Z,993.38
2016-08-01T19:50:04.124Z,993.39
2016-08-01T19:51:04.127Z,993.4
2016-08-01T19:52:04.134Z,993.41
2016-08-01T19:53:04.134Z,993.39
2016-08-01T19:54:04.138Z,993.38
2016-08-01T19:55:04.141Z,993.43
2016-08-01T19:56:04.144Z,993.4
2016-08-01T19:57:04.160Z,993.41
2016-08-01T19:58:04.153Z,993.41
2016-08-01T19:59:04.158Z,993.46
2016-08-01T20:00:04.163Z,993.46
2016-08-01T20:01:04.158Z,993.45
2016-08-01T20:02:04.160Z,993.48
2016-08-01T20:03:04.164Z,993.46
2016-08-01T20:04:04.166Z,993.49
2016-08-01T20:05:04.175Z,993.48
2016-08-01T20:06:04.173Z,993.49
2016-08-01T20:07:04.176Z,993.49
2016-08-01T20:08:04.179Z,993.47
2016-08-01T20:09:04.185Z,993.54
2016-08-01T20:10:04.189Z,993.55
2016-08-01T20:11:04.188Z,993.54
2016-08-01T20:12:04.191Z,993.56
2016-08-01T20:13:04.193Z,993.56
2016-08-01T20:14:04.200Z,993.55
2016-08-01T20:15:04.201Z,993.51
2016-08-01T20:16:04.202Z,993.52
2016-08-01T20:17:04.206Z,993.51
2016-08-01T20:18:04.209Z,993.48
2016-08-01T20:19:04.212Z,993.51
2016-08-01T20:20:04.214Z,993.51
2016-08-01T20:21:04.224Z,993.49
2016-08-01T20:22:04.221Z,993.55
2016-08-01T20:23:04.225Z,993.53
2016-08-01T20:24:04.227Z,993.53
2016-08-01T20:25:04.229Z,993.55
2016-08-01T20:26:04.232Z,993.54
2016-08-01T20:27:04.235Z,993.47
2016-08-01T20:28:04.240Z,993.48
2016-08-01T20:29:04.240Z,993.51
2016-08-01T20:30:04.243Z,993.47
2016-08-01T20:31:04.246Z,993.47
2016-08-01T20:32:04.250Z,993.48
2016-08-01T20:33:04.254Z,993.47
2016-08-01T20:34:04.257Z,993.45
2016-08-01T20:35:04.257Z,993.48
2016-08-01T20:36:04.269Z,993.49
2016-08-01T20:37:04.264Z,993.54
2016-08-01T20:38:04.270Z,993.58
2016-08-01T20:39:04.270Z,993.61
2016-08-01T20:40:04.274Z,993.59
2016-08-01T20:41:04.276Z,993.62
2016-08-01T20:42:04.280Z,993.58
2016-08-01T20:43:04.295Z,993.62
2016-08-01T20:44:04.284Z,993.62
2016-08-01T20:45:04.286Z,993.63
2016-08-01T20:46:04.296Z,993.64
2016-08-01T20:47:04.299Z,993.69
2016-08-01T20:48:04.298Z,993.64
2016-08-01T20:49:04.297Z,993.66
2016-08-01T20:50:04.301Z,993.62
2016-08-01T20:51:04.305Z,993.62
2016-08-01T20:52:04.308Z,993.63
2016-08-01T20:53:04.307Z,993.59
2016-08-01T20:54:04.312Z,993.59
2016-08-01T20:55:04.313Z,993.54
2016-08-01T20:56:04.316Z,993.48
2016-08-01T20:57:04.319Z,993.51
2016-08-01T20:58:04.321Z,993.45
2016-08-01T20:59:04.323Z,993.46
2016-08-01T21:00:04.327Z,993.45
2016-08-01T21:01:04.336Z,993.44
2016-08-01T21:02:04.333Z,993.41
2016-08-01T21:03:04.337Z,993.41
2016-08-01T21:04:04.335Z,993.42
2016-08-01T21:05:04.340Z,993.4
2016-08-01T21:06:04.342Z,993.43
2016-08-01T21:07:04.343Z,993.45
2016-08-01T21:08:04.345Z,993.42
2016-08-01T21:09:04.349Z,993.42
2016-08-01T21:10:04.352Z,993.48
2016-08-01T21:11:04.367Z,993.43
2016-08-01T21:12:04.366Z,993.4
2016-08-01T21:13:04.366Z,993.43
2016-08-01T21:14:04.368Z,993.42
2016-08-01T21:15:04.368Z,993.39
2016-08-01T21:16:04.370Z,993.38
2016-08-01T21:17:04.374Z,993.38
2016-08-01T21:18:04.371Z,993.32
2016-08-01T21:19:04.374Z,993.3
2016-08-01T21:20:04.384Z,993.3
2016-08-01T21:21:04.379Z,993.31
2016-08-01T21:22:04.382Z,993.26
2016-08-01T21:23:04.383Z,993.26
2016-08-01T21:24:04.386Z,993.24
2016-08-01T21:25:04.389Z,993.19
2016-08-01T21:26:04.392Z,993.17
2016-08-01T21:27:04.393Z,993.17
2016-08-01T21:28:04.396Z,993.18
2016-08-01T21:29:04.402Z,993.19
2016-08-01T21:30:04.406Z,993.17
2016-08-01T21:31:04.404Z,993.2
2016-08-01T21:32:04.407Z,993.21
2016-08-01T21:33:04.406Z,993.23
2016-08-01T21:34:04.410Z,993.25
2016-08-01T21:35:04.412Z,993.27
2016-08-01T21:36:04.415Z,993.26
2016-08-01T21:37:04.416Z,993.25
2016-08-01T21:38:04.431Z,993.29
2016-08-01T21:39:04.423Z,993.29
2016-08-01T21:40:04.423Z,993.3
2016-08-01T21:41:04.426Z,993.28
2016-08-01T21:42:04.429Z,993.29
2016-08-01T21:43:04.432Z,993.36
2016-08-01T21:44:04.434Z,993.36
2016-08-01T21:45:04.439Z,993.41
2016-08-01T21:46:04.440Z,993.37
2016-08-01T21:47:04.441Z,993.4
2016-08-01T21:48:04.446Z,993.41
2016-08-01T21:49:04.445Z,993.38
2016-08-01T21:50:04.448Z,993.42
2016-08-01T21:51:04.450Z,993.4
2016-08-01T21:52:04.453Z,993.43
2016-08-01T21:54:04.469Z,993.42
2016-08-01T21:55:04.480Z,993.42
2016-08-01T21:56:04.464Z,993.41
2016-08-01T21:57:04.465Z,993.41
2016-08-01T21:58:04.468Z,993.38
2016-08-01T21:59:04.469Z,993.37
2016-08-01T22:00:04.471Z,993.35
2016-08-01T22:01:04.475Z,993.38
2016-08-01T22:02:04.476Z,993.31
2016-08-01T22:03:04.478Z,993.31
2016-08-01T22:04:04.482Z,993.31
2016-08-01T22:05:04.483Z,993.33
2016-08-01T22:06:04.486Z,993.33
2016-08-01T22:07:04.491Z,993.3
2016-08-01T22:09:04.493Z,993.31
2016-08-01T22:10:04.496Z,993.32
2016-08-01T22:11:04.497Z,993.3
2016-08-01T22:12:04.499Z,993.3
2016-08-01T22:13:04.511Z,993.33
2016-08-01T22:14:04.510Z,993.31
2016-08-01T22:15:04.513Z,993.32
2016-08-01T22:16:04.512Z,993.32
2016-08-01T22:17:04.515Z,993.35
2016-08-01T22:18:04.514Z,993.33
2016-08-01T22:19:04.524Z,993.33
2016-08-01T22:20:04.528Z,993.32
2016-08-01T22:21:04.526Z,993.34
2016-08-01T22:22:04.523Z,993.34
2016-08-01T22:23:04.530Z,993.3
2016-08-01T22:24:04.526Z,993.28
2016-08-01T22:25:04.531Z,993.27
2016-08-01T22:26:04.533Z,993.26
2016-08-01T22:27:04.534Z,993.32
2016-08-01T22:28:04.829Z,993.25
2016-08-01T22:29:04.547Z,993.32
2016-08-01T22:30:04.547Z,993.28
2016-08-01T22:31:04.546Z,993.24
2016-08-01T22:32:04.546Z,993.29
2016-08-01T22:33:04.549Z,993.28
2016-08-01T22:34:04.551Z,993.29
2016-08-01T22:35:04.551Z,993.32
2016-08-01T22:36:04.554Z,993.32
2016-08-01T22:37:04.556Z,993.33
2016-08-01T22:38:04.559Z,993.31
2016-08-01T22:39:04.561Z,993.3
2016-08-01T22:40:04.563Z,993.32
2016-08-01T22:41:04.565Z,993.33
2016-08-01T22:42:04.567Z,993.32
2016-08-01T22:43:04.569Z,993.27
2016-08-01T22:44:04.572Z,993.27
2016-08-01T22:45:04.583Z,993.28
2016-08-01T22:46:04.582Z,993.27
2016-08-01T22:47:04.587Z,993.27
2016-08-01T22:48:04.582Z,993.26
2016-08-01T22:49:04.589Z,993.27
2016-08-01T22:50:04.585Z,993.24
2016-08-01T22:51:04.596Z,993.28
2016-08-01T22:52:04.601Z,993.26
2016-08-01T22:53:04.594Z,993.27
2016-08-01T22:54:04.596Z,993.25
2016-08-01T22:55:04.600Z,993.25
2016-08-01T22:56:04.606Z,993.28
2016-08-01T22:57:04.606Z,993.31
2016-08-01T22:58:04.604Z,993.3
2016-08-01T22:59:04.607Z,993.3
2016-08-01T23:00:04.610Z,993.3
2016-08-01T23:01:04.610Z,993.29
2016-08-01T23:02:04.616Z,993.26
2016-08-01T23:03:04.650Z,993.3
2016-08-01T23:04:04.620Z,993.26
2016-08-01T23:05:04.618Z,993.26
2016-08-01T23:06:04.624Z,993.28
2016-08-01T23:07:04.625Z,993.26
2016-08-01T23:08:04.625Z,993.25
2016-08-01T23:09:04.628Z,993.2
2016-08-01T23:10:04.630Z,993.22
2016-08-01T23:11:04.633Z,993.21
2016-08-01T23:12:04.635Z,993.25
2016-08-01T23:13:04.637Z,993.22
2016-08-01T23:14:04.639Z,993.24
2016-08-01T23:15:04.641Z,993.25
2016-08-01T23:16:04.644Z,993.26
2016-08-01T23:17:04.798Z,993.26
2016-08-01T23:18:04.671Z,993.22
2016-08-01T23:19:04.651Z,993.22
2016-08-01T23:20:04.652Z,993.21
2016-08-01T23:21:04.655Z,993.18
2016-08-01T23:22:04.658Z,993.18
2016-08-01T23:23:04.661Z,993.22
2016-08-01T23:24:04.663Z,993.25
2016-08-01T23:25:04.665Z,993.24
2016-08-01T23:26:04.666Z,993.23
2016-08-01T23:27:04.668Z,993.21
2016-08-01T23:28:04.671Z,993.23
2016-08-01T23:29:04.673Z,993.22
2016-08-01T23:30:04.676Z,993.19
2016-08-01T23:31:04.684Z,993.26
2016-08-01T23:32:04.680Z,993.21
2016-08-01T23:33:04.683Z,993.2
2016-08-01T23:34:04.684Z,993.23
2016-08-01T23:35:04.687Z,993.19
2016-08-01T23:36:04.689Z,993.21
2016-08-01T23:37:04.690Z,993.19
2016-08-01T23:38:04.696Z,993.14
2016-08-01T23:39:04.696Z,993.12
2016-08-01T23:40:04.698Z,993.14
2016-08-01T23:41:04.699Z,993.16
2016-08-01T23:42:04.702Z,993.17
2016-08-01T23:43:04.704Z,993.14
2016-08-01T23:44:04.706Z,993.1
2016-08-01T23:45:04.708Z,993.09
2016-08-01T23:46:04.710Z,993.16
2016-08-01T23:47:04.718Z,993.09
2016-08-01T23:48:04.714Z,993.12
2016-08-01T23:49:04.717Z,993.09
2016-08-01T23:50:04.720Z,993.07
2016-08-01T23:51:04.876Z,993.04
2016-08-01T23:52:04.724Z,993.02
2016-08-01T23:53:04.727Z,993.05
2016-08-01T23:54:04.728Z,993.08
2016-08-01T23:55:04.730Z,993.02
2016-08-01T23:56:04.733Z,993.01
2016-08-01T23:57:04.735Z,993.06
2016-08-01T23:58:04.737Z,993.01
2016-08-01T23:59:04.741Z,993.04
